If you wish to contribute or participate in the discussions about articles you are invited to join SKYbrary as a registered user

 Actions

Carcassonne Airport

From SKYbrary Wiki

LFMK
Airport
ICAO: LFMK – IATA: CCF
Summary
Name Carcassonne Airport
Region Europe
Territory France FR.gif
Location , Languedoc-Roussillon
Serving Carcassonne
Elevation 131.978 m
433 ft
433 ft131.978 m
Type medium airport
Coordinates 43° 12' 57.52" N, 2° 18' 22.74" E
Runways
Designator Length Width Surface ROPS
10/28 2050 m6,725.722 ft
45 m147.638 ft
ASP yes/yes


METAR
Observation LFMK 220700Z AUTO 31003KT 280V340 9999 BKN030 OVC037 12/11 Q1019 TEMPO 27015G30KT 2000 +TSRA OVC007 BKN025CB
Station Carcassonne
Date/Time 22 October 2019 07:00:00
Wind direction 310°
Wind speed 03 kts
Lowest cloud amount broken clouds
Temperature 12°C
Dew point 11°C
Humidity 93%
QNH 1019 hPa
Weather condition n/a